Latest METARs, TAFs and NOTAMs for DNAA


---------------------------------------------------------------------------
	(OBSERVATIONS)
DNAA 271000Z 27003KT 200V310 9999 BKN011 29/22 Q1015 NOSIG=
DNAA 270900Z 27006KT 230V300 9999 SCT010 27/22 Q1016 NOSIG=
DNAA 270800Z 22004KT 190V270 9999 FEW010 27/22 Q1016 NOSIG=
---------------------------------------------------------------------------
	(TERMINAL AREA FORECAST)
DNAA 270350Z 2706/2812 18005KT 9999 SCT008
    BECMG 2707/2709 25010KT BKN011
    TEMPO 2714/2720 TS FEW020CB
    TEMPO 2715/2720 07015G30KT 5000 TSRA BKN008 FEW018CB
    BECMG 2720/2722 VRB02KT FEW008=
---------------------------------------------------------------------------
	(NOTAMS)


DNAA A00140/10 MAINTENANCE WORK IN PROGRESS AT THE INTERNATIONAL
    WING X PILOTS ARE ADVISED TO ADHERE STRICTLY TO ATC INSTRUCTIONS
    X 18 NOV 08:30 UNTIL 18 FEB 08:30 2011 ESTIMATED

DNAA A0024/17 TAKE OFF DISTANCE AVAILABLE (TODA) RWY 04/22 CHANGED
    TO 3960M. 31 JAN 22:00 2017 UNTIL PERM. CREATED: 31 JAN 22:18
    2017

DNAA A0025/17 APPROACH LIGHTING SYSTEM RWY04 CHANGED TO PRECISION
    APPROACH SYSTEM CAT II. 31 JAN 22:00 2017 UNTIL PERM. CREATED:
    31 JAN 22:34 2017

DNAA A0097/17 EDGE LIGHTS RWY 04/22 MAINT WIP. 0000-0300, 26
    APR 00:00 2017 UNTIL 26 JUL 03:00 2017. CREATED: 24 APR 09:32
    2017

DNAA A0103/17 WIP ON TWY CENTER LINE LIGHTS. 0000-0300, 27 APR
    00:00 2017 UNTIL 26 JUL 03:00 2017. CREATED: 26 APR 13:15
    2017

DNAA A0106/17 OBSTRUCTION OF VISUAL OBSERVATION OF CONTROL TOWER
    BY NEW TERMINAL BUILDING CONSTRUCTION. PILOTS SHOULD ADHERE
    STRICTLY TO ATC INSTRUCTIONS. 30 APR 16:00 2017 UNTIL 30
    JUL 16:00 2017 ESTIMATED. CREATED: 31 MAY 23:19 2017

DNAA A0108/17 GAT APRON EXTENTION WORK BY 120M X 300M IN PROGRESS.PILOTS
    TO EXERCISE CAUTION WHILE TAXIING IN AND OUT OF THE APRON.
    0700-1900, 30 APR 19:00 2017 UNTIL 30 JUL 19:00 2017 ESTIMATED.
    CREATED: 30 APR 19:06 2017

DNAA A0116/17 TWY LIGHTING U/S.PILOTS TAXIING IN AND OUT OF THE
    MANOEUVRING AREA SHOULD EXERCISE CAUTION. 08 MAY 10:30 2017
    UNTIL 08 AUG 10:30 2017 ESTIMATED. CREATED: 08 MAY 09:51
    2017

DNAA A0117/17 WIP ON THE FENCING OF INTERNATIONAL/DOMESTIC APRON
    WITHIN TERMINAL CONSTRUCTION SITE. CAUTION ADVISED. 08 MAY
    14:15 2017 UNTIL 08 AUG 14:15 2017 ESTIMATED. CREATED: 08
    MAY 13:48 2017

DNAA A0119/17 TWY ?C? CLOSED. CAUTION ADVISED WHILE TAXIING TO
    AND FROM THE INTERNATIONAL/DOMESTIC APRON. 10 MAY 17:00 2017
    UNTIL 10 AUG 17:00 2017 ESTIMATED. CREATED: 10 MAY 15:59
    2017

DNAA A0153/17 PROCEDURAL CONTROL SERVICES PROVIDED DUE ATCO CADETS
    ON TRAINING. 0600-0800 1300-1430 2100-2300 DAILY, 14 JUN
    15:45 2017 UNTIL 14 SEP 15:45 2017 ESTIMATED. CREATED: 14
    JUN 15:34 2017

---------------------------------------------------------------------------